TNCM

Princess Juliana International Airport

Code ICAO TNCM
Code IATA SXM
Nom Princess Juliana International Airport
Emplacement Saint Martin, , SX
Élévation 13 pieds / 4 mètres
Latitude 18.04100037
Longitude -63.10889816
METAR TNCM 210900Z 06008KT 9999 FEW018 27/24 Q1019
Informations extras Afficher cartes et CFS
Afficher NOTAMS
Piste Longueur Largeur Surface Élévation
09 7708 ft 148 ft ASP 11 ft
10 7152 ft 148 ft ASPH-CONC 12 ft
27 7708 ft 148 ft ASP 11 ft
28 7152 ft 148 ft ASPH-CONC 9 ft